sensor_id;sensor_type;location;lat;lon;timestamp;P1;durP1;ratioP1;P2;durP2;ratioP2
67595;SDS011;54410;48.694;8.934;2024-01-15T00:02:06;22.23;;;11.00;;
67595;SDS011;54410;48.694;8.934;2024-01-15T00:04:36;24.93;;;11.60;;
67595;SDS011;54410;48.694;8.934;2024-01-15T00:07:02;21.20;;;10.53;;
67595;SDS011;54410;48.694;8.934;2024-01-15T00:09:28;28.10;;;11.97;;
67595;SDS011;54410;48.694;8.934;2024-01-15T00:11:54;19.63;;;10.97;;
67595;SDS011;54410;48.694;8.934;2024-01-15T00:14:20;26.53;;;11.17;;
67595;SDS011;54410;48.694;8.934;2024-01-15T00:16:46;20.43;;;10.77;;
67595;SDS011;54410;48.694;8.934;2024-01-15T00:19:14;20.23;;;9.83;;
67595;SDS011;54410;48.694;8.934;2024-01-15T00:21:40;20.17;;;10.23;;
67595;SDS011;54410;48.694;8.934;2024-01-15T00:24:06;25.10;;;10.80;;
67595;SDS011;54410;48.694;8.934;2024-01-15T00:26:32;21.30;;;10.23;;
67595;SDS011;54410;48.694;8.934;2024-01-15T00:28:58;22.60;;;11.53;;
67595;SDS011;54410;48.694;8.934;2024-01-15T00:31:24;22.13;;;10.83;;
67595;SDS011;54410;48.694;8.934;2024-01-15T00:33:50;19.67;;;10.33;;
67595;SDS011;54410;48.694;8.934;2024-01-15T00:36:16;18.87;;;10.13;;
67595;SDS011;54410;48.694;8.934;2024-01-15T00:38:43;22.37;;;10.43;;
67595;SDS011;54410;48.694;8.934;2024-01-15T00:41:09;23.03;;;10.27;;
67595;SDS011;54410;48.694;8.934;2024-01-15T00:43:35;24.00;;;10.80;;
67595;SDS011;54410;48.694;8.934;2024-01-15T00:46:02;21.73;;;10.40;;
67595;SDS011;54410;48.694;8.934;2024-01-15T00:48:28;27.33;;;11.47;;
67595;SDS011;54410;48.694;8.934;2024-01-15T00:50:54;24.00;;;10.83;;
67595;SDS011;54410;48.694;8.934;2024-01-15T00:53:20;24.13;;;10.10;;
67595;SDS011;54410;48.694;8.934;2024-01-15T00:55:47;24.23;;;11.47;;
67595;SDS011;54410;48.694;8.934;2024-01-15T00:58:13;25.40;;;11.23;;
67595;SDS011;54410;48.694;8.934;2024-01-15T01:00:39;23.17;;;10.90;;
67595;SDS011;54410;48.694;8.934;2024-01-15T01:03:05;22.93;;;10.67;;
67595;SDS011;54410;48.694;8.934;2024-01-15T01:05:31;23.43;;;10.73;;
67595;SDS011;54410;48.694;8.934;2024-01-15T01:07:57;25.30;;;11.80;;
67595;SDS011;54410;48.694;8.934;2024-01-15T01:10:23;21.93;;;11.13;;
67595;SDS011;54410;48.694;8.934;2024-01-15T01:12:49;19.37;;;10.30;;
67595;SDS011;54410;48.694;8.934;2024-01-15T01:15:16;21.03;;;10.17;;
67595;SDS011;54410;48.694;8.934;2024-01-15T01:17:41;22.80;;;10.37;;
67595;SDS011;54410;48.694;8.934;2024-01-15T01:20:07;20.70;;;9.60;;
67595;SDS011;54410;48.694;8.934;2024-01-15T01:22:35;25.47;;;10.30;;
67595;SDS011;54410;48.694;8.934;2024-01-15T01:25:01;23.87;;;11.13;;
67595;SDS011;54410;48.694;8.934;2024-01-15T01:27:27;21.33;;;10.97;;
67595;SDS011;54410;48.694;8.934;2024-01-15T01:29:53;24.37;;;11.47;;
67595;SDS011;54410;48.694;8.934;2024-01-15T01:32:19;23.27;;;11.17;;
67595;SDS011;54410;48.694;8.934;2024-01-15T01:34:45;23.50;;;11.30;;
67595;SDS011;54410;48.694;8.934;2024-01-15T01:37:11;20.67;;;10.53;;
67595;SDS011;54410;48.694;8.934;2024-01-15T01:39:41;18.17;;;10.10;;
67595;SDS011;54410;48.694;8.934;2024-01-15T01:42:07;17.53;;;9.33;;
67595;SDS011;54410;48.694;8.934;2024-01-15T01:44:33;18.90;;;10.77;;
67595;SDS011;54410;48.694;8.934;2024-01-15T01:46:59;18.87;;;9.63;;
67595;SDS011;54410;48.694;8.934;2024-01-15T01:49:26;19.60;;;9.90;;
67595;SDS011;54410;48.694;8.934;2024-01-15T01:51:52;19.47;;;10.00;;
67595;SDS011;54410;48.694;8.934;2024-01-15T01:54:19;23.17;;;10.53;;
67595;SDS011;54410;48.694;8.934;2024-01-15T01:56:46;22.67;;;10.13;;
67595;SDS011;54410;48.694;8.934;2024-01-15T01:59:13;23.90;;;10.53;;
67595;SDS011;54410;48.694;8.934;2024-01-15T02:01:39;24.20;;;10.03;;
67595;SDS011;54410;48.694;8.934;2024-01-15T02:04:06;20.87;;;10.30;;
67595;SDS011;54410;48.694;8.934;2024-01-15T02:06:33;26.20;;;10.40;;
67595;SDS011;54410;48.694;8.934;2024-01-15T02:08:59;20.37;;;10.03;;
67595;SDS011;54410;48.694;8.934;2024-01-15T02:11:25;20.30;;;10.10;;
67595;SDS011;54410;48.694;8.934;2024-01-15T02:13:51;16.27;;;10.00;;
67595;SDS011;54410;48.694;8.934;2024-01-15T02:16:16;26.60;;;12.10;;
67595;SDS011;54410;48.694;8.934;2024-01-15T02:18:43;23.93;;;9.90;;
67595;SDS011;54410;48.694;8.934;2024-01-15T02:21:10;22.33;;;9.73;;
67595;SDS011;54410;48.694;8.934;2024-01-15T02:23:36;21.63;;;10.03;;
67595;SDS011;54410;48.694;8.934;2024-01-15T02:26:03;24.53;;;11.17;;
67595;SDS011;54410;48.694;8.934;2024-01-15T02:28:30;20.87;;;9.63;;
67595;SDS011;54410;48.694;8.934;2024-01-15T02:30:55;19.73;;;10.23;;
67595;SDS011;54410;48.694;8.934;2024-01-15T02:33:22;18.27;;;9.63;;
67595;SDS011;54410;48.694;8.934;2024-01-15T02:35:48;20.57;;;10.03;;
67595;SDS011;54410;48.694;8.934;2024-01-15T02:38:15;18.03;;;10.40;;
67595;SDS011;54410;48.694;8.934;2024-01-15T02:40:41;21.30;;;10.13;;
67595;SDS011;54410;48.694;8.934;2024-01-15T02:43:07;19.63;;;10.03;;
67595;SDS011;54410;48.694;8.934;2024-01-15T02:45:33;25.97;;;10.67;;
67595;SDS011;54410;48.694;8.934;2024-01-15T02:47:59;21.57;;;10.83;;
67595;SDS011;54410;48.694;8.934;2024-01-15T02:50:25;21.70;;;10.60;;
67595;SDS011;54410;48.694;8.934;2024-01-15T02:52:51;18.20;;;10.37;;
67595;SDS011;54410;48.694;8.934;2024-01-15T02:55:17;20.93;;;9.83;;
67595;SDS011;54410;48.694;8.934;2024-01-15T02:57:43;24.23;;;12.40;;
67595;SDS011;54410;48.694;8.934;2024-01-15T03:00:09;26.60;;;11.00;;
67595;SDS011;54410;48.694;8.934;2024-01-15T03:02:36;19.37;;;9.80;;
67595;SDS011;54410;48.694;8.934;2024-01-15T03:05:05;20.30;;;10.63;;
67595;SDS011;54410;48.694;8.934;2024-01-15T03:07:31;21.10;;;10.27;;
67595;SDS011;54410;48.694;8.934;2024-01-15T03:09:57;20.30;;;9.97;;
67595;SDS011;54410;48.694;8.934;2024-01-15T03:12:23;27.97;;;10.33;;
67595;SDS011;54410;48.694;8.934;2024-01-15T03:14:51;21.03;;;10.43;;
67595;SDS011;54410;48.694;8.934;2024-01-15T03:17:17;20.57;;;9.30;;
67595;SDS011;54410;48.694;8.934;2024-01-15T03:19:43;20.40;;;9.77;;
67595;SDS011;54410;48.694;8.934;2024-01-15T03:22:09;21.50;;;9.80;;
67595;SDS011;54410;48.694;8.934;2024-01-15T03:24:35;18.77;;;9.83;;
67595;SDS011;54410;48.694;8.934;2024-01-15T03:27:02;18.67;;;9.60;;
67595;SDS011;54410;48.694;8.934;2024-01-15T03:29:28;21.80;;;9.90;;
67595;SDS011;54410;48.694;8.934;2024-01-15T03:31:54;18.27;;;9.70;;
67595;SDS011;54410;48.694;8.934;2024-01-15T03:34:20;17.73;;;8.63;;
67595;SDS011;54410;48.694;8.934;2024-01-15T03:36:46;17.17;;;9.27;;
67595;SDS011;54410;48.694;8.934;2024-01-15T03:39:11;15.40;;;8.33;;
67595;SDS011;54410;48.694;8.934;2024-01-15T03:41:37;18.90;;;9.00;;
67595;SDS011;54410;48.694;8.934;2024-01-15T03:44:03;17.67;;;9.10;;
67595;SDS011;54410;48.694;8.934;2024-01-15T03:46:29;17.23;;;9.13;;
67595;SDS011;54410;48.694;8.934;2024-01-15T03:48:55;21.17;;;9.73;;
67595;SDS011;54410;48.694;8.934;2024-01-15T03:51:21;23.60;;;10.00;;
67595;SDS011;54410;48.694;8.934;2024-01-15T03:53:47;18.73;;;10.80;;
67595;SDS011;54410;48.694;8.934;2024-01-15T03:56:13;19.77;;;9.87;;
67595;SDS011;54410;48.694;8.934;2024-01-15T03:58:39;27.60;;;10.90;;
67595;SDS011;54410;48.694;8.934;2024-01-15T04:01:11;19.10;;;10.20;;
67595;SDS011;54410;48.694;8.934;2024-01-15T04:03:37;18.93;;;9.53;;
67595;SDS011;54410;48.694;8.934;2024-01-15T04:06:03;21.93;;;9.67;;
67595;SDS011;54410;48.694;8.934;2024-01-15T04:08:29;21.30;;;10.27;;
67595;SDS011;54410;48.694;8.934;2024-01-15T04:10:55;17.93;;;10.10;;
67595;SDS011;54410;48.694;8.934;2024-01-15T04:13:21;21.27;;;9.60;;
67595;SDS011;54410;48.694;8.934;2024-01-15T04:15:47;22.43;;;10.67;;
67595;SDS011;54410;48.694;8.934;2024-01-15T04:18:16;21.00;;;9.27;;
67595;SDS011;54410;48.694;8.934;2024-01-15T04:20:45;27.63;;;10.80;;
67595;SDS011;54410;48.694;8.934;2024-01-15T04:23:11;20.40;;;10.00;;
67595;SDS011;54410;48.694;8.934;2024-01-15T04:25:37;22.10;;;10.03;;
67595;SDS011;54410;48.694;8.934;2024-01-15T04:28:06;18.00;;;8.77;;
67595;SDS011;54410;48.694;8.934;2024-01-15T04:30:32;19.60;;;10.43;;
67595;SDS011;54410;48.694;8.934;2024-01-15T04:32:58;19.03;;;10.87;;
67595;SDS011;54410;48.694;8.934;2024-01-15T04:35:24;16.53;;;9.97;;
67595;SDS011;54410;48.694;8.934;2024-01-15T04:37:50;21.07;;;9.57;;
67595;SDS011;54410;48.694;8.934;2024-01-15T04:40:16;20.20;;;9.97;;
67595;SDS011;54410;48.694;8.934;2024-01-15T04:42:42;18.53;;;10.70;;
67595;SDS011;54410;48.694;8.934;2024-01-15T04:45:08;19.93;;;10.53;;
67595;SDS011;54410;48.694;8.934;2024-01-15T04:47:34;17.30;;;9.67;;
67595;SDS011;54410;48.694;8.934;2024-01-15T04:50:01;20.40;;;9.33;;
67595;SDS011;54410;48.694;8.934;2024-01-15T04:52:27;19.20;;;9.50;;
67595;SDS011;54410;48.694;8.934;2024-01-15T04:54:53;20.30;;;9.80;;
67595;SDS011;54410;48.694;8.934;2024-01-15T04:57:19;21.87;;;9.87;;
67595;SDS011;54410;48.694;8.934;2024-01-15T04:59:45;19.23;;;9.53;;
67595;SDS011;54410;48.694;8.934;2024-01-15T05:02:11;18.37;;;9.10;;
67595;SDS011;54410;48.694;8.934;2024-01-15T05:04:37;18.67;;;10.00;;
67595;SDS011;54410;48.694;8.934;2024-01-15T05:07:03;20.00;;;9.50;;
67595;SDS011;54410;48.694;8.934;2024-01-15T05:09:29;19.13;;;9.87;;
67595;SDS011;54410;48.694;8.934;2024-01-15T05:11:55;15.33;;;8.67;;
67595;SDS011;54410;48.694;8.934;2024-01-15T05:14:21;19.93;;;10.20;;
67595;SDS011;54410;48.694;8.934;2024-01-15T05:16:47;16.23;;;9.60;;
67595;SDS011;54410;48.694;8.934;2024-01-15T05:19:13;18.10;;;9.67;;
67595;SDS011;54410;48.694;8.934;2024-01-15T05:21:39;18.80;;;9.77;;
67595;SDS011;54410;48.694;8.934;2024-01-15T05:24:05;15.07;;;8.80;;
67595;SDS011;54410;48.694;8.934;2024-01-15T05:26:30;21.00;;;9.80;;
67595;SDS011;54410;48.694;8.934;2024-01-15T05:28:56;17.30;;;10.60;;
67595;SDS011;54410;48.694;8.934;2024-01-15T05:31:22;18.77;;;9.50;;
67595;SDS011;54410;48.694;8.934;2024-01-15T05:33:48;20.97;;;9.53;;
67595;SDS011;54410;48.694;8.934;2024-01-15T05:36:14;17.20;;;9.73;;
67595;SDS011;54410;48.694;8.934;2024-01-15T05:38:40;17.53;;;9.13;;
67595;SDS011;54410;48.694;8.934;2024-01-15T05:41:06;19.60;;;9.67;;
67595;SDS011;54410;48.694;8.934;2024-01-15T05:43:32;20.97;;;9.60;;
67595;SDS011;54410;48.694;8.934;2024-01-15T05:45:58;17.83;;;9.80;;
67595;SDS011;54410;48.694;8.934;2024-01-15T05:48:24;16.97;;;9.13;;
67595;SDS011;54410;48.694;8.934;2024-01-15T05:50:50;18.07;;;9.63;;
67595;SDS011;54410;48.694;8.934;2024-01-15T05:53:16;17.63;;;9.63;;
67595;SDS011;54410;48.694;8.934;2024-01-15T05:55:42;15.50;;;9.27;;
67595;SDS011;54410;48.694;8.934;2024-01-15T05:58:08;17.40;;;9.07;;
67595;SDS011;54410;48.694;8.934;2024-01-15T06:00:34;14.63;;;8.73;;
67595;SDS011;54410;48.694;8.934;2024-01-15T06:03:00;18.87;;;9.23;;
67595;SDS011;54410;48.694;8.934;2024-01-15T06:05:26;18.00;;;9.73;;
67595;SDS011;54410;48.694;8.934;2024-01-15T06:07:52;16.30;;;9.10;;
67595;SDS011;54410;48.694;8.934;2024-01-15T06:10:18;13.70;;;9.47;;
67595;SDS011;54410;48.694;8.934;2024-01-15T06:12:44;15.70;;;8.20;;
67595;SDS011;54410;48.694;8.934;2024-01-15T06:15:10;15.17;;;9.00;;
67595;SDS011;54410;48.694;8.934;2024-01-15T06:17:37;15.00;;;8.30;;
67595;SDS011;54410;48.694;8.934;2024-01-15T06:20:03;13.23;;;8.40;;
67595;SDS011;54410;48.694;8.934;2024-01-15T06:22:29;11.47;;;8.23;;
67595;SDS011;54410;48.694;8.934;2024-01-15T06:24:55;16.20;;;8.67;;
67595;SDS011;54410;48.694;8.934;2024-01-15T06:27:21;15.83;;;9.07;;
67595;SDS011;54410;48.694;8.934;2024-01-15T06:29:47;14.50;;;9.10;;
67595;SDS011;54410;48.694;8.934;2024-01-15T06:32:13;15.43;;;8.77;;
67595;SDS011;54410;48.694;8.934;2024-01-15T06:34:39;13.83;;;8.60;;
67595;SDS011;54410;48.694;8.934;2024-01-15T06:37:05;18.13;;;9.30;;
67595;SDS011;54410;48.694;8.934;2024-01-15T06:39:31;18.07;;;9.83;;
67595;SDS011;54410;48.694;8.934;2024-01-15T06:41:57;14.67;;;9.20;;
67595;SDS011;54410;48.694;8.934;2024-01-15T06:44:23;17.83;;;10.13;;
67595;SDS011;54410;48.694;8.934;2024-01-15T06:46:49;15.30;;;9.77;;
67595;SDS011;54410;48.694;8.934;2024-01-15T06:49:14;17.30;;;9.70;;
67595;SDS011;54410;48.694;8.934;2024-01-15T06:51:41;18.87;;;9.73;;
67595;SDS011;54410;48.694;8.934;2024-01-15T06:54:06;16.17;;;9.50;;
67595;SDS011;54410;48.694;8.934;2024-01-15T06:56:33;16.40;;;9.50;;
67595;SDS011;54410;48.694;8.934;2024-01-15T06:58:59;14.13;;;9.73;;
67595;SDS011;54410;48.694;8.934;2024-01-15T07:01:24;14.97;;;9.33;;
67595;SDS011;54410;48.694;8.934;2024-01-15T07:03:50;16.97;;;9.40;;
67595;SDS011;54410;48.694;8.934;2024-01-15T07:06:16;16.93;;;9.57;;
67595;SDS011;54410;48.694;8.934;2024-01-15T07:08:42;14.77;;;8.93;;
67595;SDS011;54410;48.694;8.934;2024-01-15T07:11:09;15.00;;;8.57;;
67595;SDS011;54410;48.694;8.934;2024-01-15T07:13:38;16.57;;;9.93;;
67595;SDS011;54410;48.694;8.934;2024-01-15T07:16:03;18.30;;;10.27;;
67595;SDS011;54410;48.694;8.934;2024-01-15T07:18:29;19.57;;;10.40;;
67595;SDS011;54410;48.694;8.934;2024-01-15T07:20:55;21.10;;;11.00;;
67595;SDS011;54410;48.694;8.934;2024-01-15T07:23:21;19.90;;;10.17;;
67595;SDS011;54410;48.694;8.934;2024-01-15T07:25:47;21.60;;;10.57;;
67595;SDS011;54410;48.694;8.934;2024-01-15T07:28:13;22.77;;;10.77;;
67595;SDS011;54410;48.694;8.934;2024-01-15T07:30:39;23.87;;;10.57;;
67595;SDS011;54410;48.694;8.934;2024-01-15T07:33:05;18.13;;;11.00;;
67595;SDS011;54410;48.694;8.934;2024-01-15T07:35:31;15.67;;;9.63;;
67595;SDS011;54410;48.694;8.934;2024-01-15T07:37:57;15.63;;;9.50;;
67595;SDS011;54410;48.694;8.934;2024-01-15T07:40:23;17.17;;;9.73;;
67595;SDS011;54410;48.694;8.934;2024-01-15T07:42:50;19.30;;;10.07;;
67595;SDS011;54410;48.694;8.934;2024-01-15T07:45:16;18.17;;;10.43;;
67595;SDS011;54410;48.694;8.934;2024-01-15T07:47:42;16.70;;;10.00;;
67595;SDS011;54410;48.694;8.934;2024-01-15T07:50:08;14.83;;;10.50;;
67595;SDS011;54410;48.694;8.934;2024-01-15T07:52:34;15.10;;;9.17;;
67595;SDS011;54410;48.694;8.934;2024-01-15T07:55:00;17.77;;;9.63;;
67595;SDS011;54410;48.694;8.934;2024-01-15T07:57:26;12.60;;;8.37;;
67595;SDS011;54410;48.694;8.934;2024-01-15T07:59:52;15.70;;;8.07;;
67595;SDS011;54410;48.694;8.934;2024-01-15T08:02:18;13.20;;;8.90;;
67595;SDS011;54410;48.694;8.934;2024-01-15T08:04:44;13.97;;;8.27;;
67595;SDS011;54410;48.694;8.934;2024-01-15T08:07:10;11.97;;;7.73;;
67595;SDS011;54410;48.694;8.934;2024-01-15T08:09:38;10.97;;;7.10;;
67595;SDS011;54410;48.694;8.934;2024-01-15T08:12:04;13.20;;;7.80;;
67595;SDS011;54410;48.694;8.934;2024-01-15T08:14:31;12.27;;;7.57;;
67595;SDS011;54410;48.694;8.934;2024-01-15T08:16:57;12.67;;;7.13;;
67595;SDS011;54410;48.694;8.934;2024-01-15T08:19:23;10.27;;;7.23;;
67595;SDS011;54410;48.694;8.934;2024-01-15T08:21:49;12.23;;;7.60;;
67595;SDS011;54410;48.694;8.934;2024-01-15T08:24:15;11.10;;;6.27;;
67595;SDS011;54410;48.694;8.934;2024-01-15T08:26:41;12.90;;;8.03;;
67595;SDS011;54410;48.694;8.934;2024-01-15T08:29:07;11.37;;;7.23;;
67595;SDS011;54410;48.694;8.934;2024-01-15T08:31:33;10.70;;;7.03;;
67595;SDS011;54410;48.694;8.934;2024-01-15T08:33:59;10.57;;;7.23;;
67595;SDS011;54410;48.694;8.934;2024-01-15T08:36:26;11.27;;;6.97;;
67595;SDS011;54410;48.694;8.934;2024-01-15T08:38:54;12.93;;;7.20;;
67595;SDS011;54410;48.694;8.934;2024-01-15T08:41:21;8.97;;;6.20;;
67595;SDS011;54410;48.694;8.934;2024-01-15T08:43:48;11.37;;;7.07;;
67595;SDS011;54410;48.694;8.934;2024-01-15T08:46:14;11.90;;;7.23;;
67595;SDS011;54410;48.694;8.934;2024-01-15T08:48:40;12.50;;;7.47;;
67595;SDS011;54410;48.694;8.934;2024-01-15T08:51:06;13.40;;;7.37;;
67595;SDS011;54410;48.694;8.934;2024-01-15T08:53:33;12.37;;;6.93;;
67595;SDS011;54410;48.694;8.934;2024-01-15T08:55:59;11.87;;;6.73;;
67595;SDS011;54410;48.694;8.934;2024-01-15T08:58:24;12.90;;;7.27;;
67595;SDS011;54410;48.694;8.934;2024-01-15T09:00:50;7.83;;;6.30;;
67595;SDS011;54410;48.694;8.934;2024-01-15T09:03:16;10.97;;;7.03;;
67595;SDS011;54410;48.694;8.934;2024-01-15T09:05:42;10.43;;;6.80;;
67595;SDS011;54410;48.694;8.934;2024-01-15T09:08:08;10.20;;;6.97;;
67595;SDS011;54410;48.694;8.934;2024-01-15T09:10:35;11.10;;;8.00;;
67595;SDS011;54410;48.694;8.934;2024-01-15T09:13:00;14.13;;;7.47;;
67595;SDS011;54410;48.694;8.934;2024-01-15T09:15:28;9.47;;;6.07;;
67595;SDS011;54410;48.694;8.934;2024-01-15T09:17:54;9.43;;;6.80;;
67595;SDS011;54410;48.694;8.934;2024-01-15T09:20:22;8.70;;;6.60;;
67595;SDS011;54410;48.694;8.934;2024-01-15T09:22:48;11.13;;;6.47;;
67595;SDS011;54410;48.694;8.934;2024-01-15T09:25:14;10.27;;;7.03;;
67595;SDS011;54410;48.694;8.934;2024-01-15T09:27:40;48.03;;;20.73;;
67595;SDS011;54410;48.694;8.934;2024-01-15T09:30:07;17.07;;;9.13;;
67595;SDS011;54410;48.694;8.934;2024-01-15T09:32:33;8.83;;;7.00;;
67595;SDS011;54410;48.694;8.934;2024-01-15T09:34:59;20.83;;;11.70;;
67595;SDS011;54410;48.694;8.934;2024-01-15T09:37:25;14.20;;;8.73;;
67595;SDS011;54410;48.694;8.934;2024-01-15T09:39:51;12.17;;;8.13;;
67595;SDS011;54410;48.694;8.934;2024-01-15T09:42:18;8.40;;;6.23;;
67595;SDS011;54410;48.694;8.934;2024-01-15T09:44:44;9.40;;;6.20;;
67595;SDS011;54410;48.694;8.934;2024-01-15T09:47:10;7.83;;;6.00;;
67595;SDS011;54410;48.694;8.934;2024-01-15T09:49:37;8.90;;;6.90;;
67595;SDS011;54410;48.694;8.934;2024-01-15T09:52:03;9.07;;;6.07;;
67595;SDS011;54410;48.694;8.934;2024-01-15T09:54:30;10.13;;;6.37;;
67595;SDS011;54410;48.694;8.934;2024-01-15T09:56:56;10.87;;;6.60;;
67595;SDS011;54410;48.694;8.934;2024-01-15T09:59:22;9.23;;;7.53;;
67595;SDS011;54410;48.694;8.934;2024-01-15T10:01:48;12.27;;;7.27;;
67595;SDS011;54410;48.694;8.934;2024-01-15T10:04:15;8.37;;;6.40;;
67595;SDS011;54410;48.694;8.934;2024-01-15T10:06:43;10.10;;;7.23;;
67595;SDS011;54410;48.694;8.934;2024-01-15T10:09:13;10.80;;;6.50;;
67595;SDS011;54410;48.694;8.934;2024-01-15T10:11:42;8.33;;;6.17;;
67595;SDS011;54410;48.694;8.934;2024-01-15T10:14:09;8.93;;;6.07;;
67595;SDS011;54410;48.694;8.934;2024-01-15T10:16:37;9.20;;;6.90;;
67595;SDS011;54410;48.694;8.934;2024-01-15T10:19:04;8.97;;;6.40;;
67595;SDS011;54410;48.694;8.934;2024-01-15T10:21:31;6.93;;;5.07;;
67595;SDS011;54410;48.694;8.934;2024-01-15T10:23:59;10.30;;;7.03;;
67595;SDS011;54410;48.694;8.934;2024-01-15T10:26:26;8.30;;;5.63;;
67595;SDS011;54410;48.694;8.934;2024-01-15T10:28:52;8.73;;;6.87;;
67595;SDS011;54410;48.694;8.934;2024-01-15T10:31:18;8.97;;;6.37;;
67595;SDS011;54410;48.694;8.934;2024-01-15T10:33:44;9.20;;;6.83;;
67595;SDS011;54410;48.694;8.934;2024-01-15T10:36:10;9.40;;;6.50;;
67595;SDS011;54410;48.694;8.934;2024-01-15T10:38:36;11.00;;;6.00;;
67595;SDS011;54410;48.694;8.934;2024-01-15T10:41:03;8.37;;;6.67;;
67595;SDS011;54410;48.694;8.934;2024-01-15T10:43:29;10.20;;;6.77;;
67595;SDS011;54410;48.694;8.934;2024-01-15T10:45:55;11.27;;;6.47;;
67595;SDS011;54410;48.694;8.934;2024-01-15T10:48:21;8.47;;;6.87;;
67595;SDS011;54410;48.694;8.934;2024-01-15T10:50:47;9.00;;;7.10;;
67595;SDS011;54410;48.694;8.934;2024-01-15T10:53:13;8.27;;;6.50;;
67595;SDS011;54410;48.694;8.934;2024-01-15T10:55:39;7.73;;;6.30;;
67595;SDS011;54410;48.694;8.934;2024-01-15T10:58:07;11.67;;;6.60;;
67595;SDS011;54410;48.694;8.934;2024-01-15T11:00:33;10.60;;;6.73;;
67595;SDS011;54410;48.694;8.934;2024-01-15T11:03:01;9.33;;;5.83;;
67595;SDS011;54410;48.694;8.934;2024-01-15T11:05:27;11.83;;;6.97;;
67595;SDS011;54410;48.694;8.934;2024-01-15T11:07:57;11.17;;;7.37;;
67595;SDS011;54410;48.694;8.934;2024-01-15T11:10:37;9.73;;;7.97;;
67595;SDS011;54410;48.694;8.934;2024-01-15T11:13:05;13.33;;;8.30;;
67595;SDS011;54410;48.694;8.934;2024-01-15T11:15:32;11.57;;;7.53;;
67595;SDS011;54410;48.694;8.934;2024-01-15T11:18:15;16.50;;;10.37;;
67595;SDS011;54410;48.694;8.934;2024-01-15T11:20:40;15.67;;;9.40;;
67595;SDS011;54410;48.694;8.934;2024-01-15T11:23:42;9.93;;;7.50;;
67595;SDS011;54410;48.694;8.934;2024-01-15T11:26:30;9.17;;;6.33;;
67595;SDS011;54410;48.694;8.934;2024-01-15T11:28:57;11.93;;;6.70;;
67595;SDS011;54410;48.694;8.934;2024-01-15T11:33:54;8.20;;;6.40;;
67595;SDS011;54410;48.694;8.934;2024-01-15T11:36:21;12.43;;;7.47;;
67595;SDS011;54410;48.694;8.934;2024-01-15T11:39:03;8.30;;;6.17;;
67595;SDS011;54410;48.694;8.934;2024-01-15T11:41:46;8.77;;;7.13;;
67595;SDS011;54410;48.694;8.934;2024-01-15T11:44:13;9.57;;;7.67;;
67595;SDS011;54410;48.694;8.934;2024-01-15T11:46:39;10.00;;;7.70;;
67595;SDS011;54410;48.694;8.934;2024-01-15T11:49:12;11.73;;;7.13;;
67595;SDS011;54410;48.694;8.934;2024-01-15T11:51:46;11.93;;;7.30;;
67595;SDS011;54410;48.694;8.934;2024-01-15T11:54:12;13.03;;;7.77;;
67595;SDS011;54410;48.694;8.934;2024-01-15T11:56:39;11.10;;;7.10;;
67595;SDS011;54410;48.694;8.934;2024-01-15T11:59:06;11.73;;;7.73;;
67595;SDS011;54410;48.694;8.934;2024-01-15T12:01:32;12.50;;;7.17;;
67595;SDS011;54410;48.694;8.934;2024-01-15T12:03:59;8.37;;;6.93;;
67595;SDS011;54410;48.694;8.934;2024-01-15T12:06:25;12.13;;;8.33;;
67595;SDS011;54410;48.694;8.934;2024-01-15T12:08:51;11.77;;;7.30;;
67595;SDS011;54410;48.694;8.934;2024-01-15T12:11:31;12.97;;;7.43;;
67595;SDS011;54410;48.694;8.934;2024-01-15T12:13:59;12.57;;;7.50;;
67595;SDS011;54410;48.694;8.934;2024-01-15T12:16:25;11.37;;;7.27;;
67595;SDS011;54410;48.694;8.934;2024-01-15T12:18:51;11.87;;;7.50;;
67595;SDS011;54410;48.694;8.934;2024-01-15T12:21:17;8.80;;;6.87;;
67595;SDS011;54410;48.694;8.934;2024-01-15T12:23:45;11.07;;;7.30;;
67595;SDS011;54410;48.694;8.934;2024-01-15T12:26:13;10.03;;;7.70;;
67595;SDS011;54410;48.694;8.934;2024-01-15T12:28:39;9.60;;;6.97;;
67595;SDS011;54410;48.694;8.934;2024-01-15T12:31:05;12.63;;;7.63;;
67595;SDS011;54410;48.694;8.934;2024-01-15T12:33:32;10.30;;;7.13;;
67595;SDS011;54410;48.694;8.934;2024-01-15T12:35:58;10.27;;;7.13;;
67595;SDS011;54410;48.694;8.934;2024-01-15T12:38:24;11.37;;;7.63;;
67595;SDS011;54410;48.694;8.934;2024-01-15T12:40:50;13.87;;;7.13;;
67595;SDS011;54410;48.694;8.934;2024-01-15T12:43:17;8.13;;;6.43;;
67595;SDS011;54410;48.694;8.934;2024-01-15T12:45:43;8.20;;;6.73;;
67595;SDS011;54410;48.694;8.934;2024-01-15T12:48:09;12.87;;;7.43;;
67595;SDS011;54410;48.694;8.934;2024-01-15T12:50:35;10.87;;;6.40;;
67595;SDS011;54410;48.694;8.934;2024-01-15T12:53:01;10.27;;;6.77;;
67595;SDS011;54410;48.694;8.934;2024-01-15T12:55:26;8.47;;;5.77;;
67595;SDS011;54410;48.694;8.934;2024-01-15T12:57:52;11.20;;;6.70;;
67595;SDS011;54410;48.694;8.934;2024-01-15T13:00:20;9.40;;;6.93;;
67595;SDS011;54410;48.694;8.934;2024-01-15T13:02:46;8.37;;;5.37;;
67595;SDS011;54410;48.694;8.934;2024-01-15T13:05:12;9.30;;;6.47;;
67595;SDS011;54410;48.694;8.934;2024-01-15T13:07:38;7.50;;;6.00;;
67595;SDS011;54410;48.694;8.934;2024-01-15T13:10:05;10.47;;;6.10;;
67595;SDS011;54410;48.694;8.934;2024-01-15T13:12:31;8.27;;;5.70;;
67595;SDS011;54410;48.694;8.934;2024-01-15T13:14:58;9.20;;;5.93;;
67595;SDS011;54410;48.694;8.934;2024-01-15T13:17:24;7.43;;;5.67;;
67595;SDS011;54410;48.694;8.934;2024-01-15T13:19:50;7.33;;;5.67;;
67595;SDS011;54410;48.694;8.934;2024-01-15T13:22:16;8.47;;;5.90;;
67595;SDS011;54410;48.694;8.934;2024-01-15T13:24:42;5.70;;;5.20;;
67595;SDS011;54410;48.694;8.934;2024-01-15T13:27:08;7.80;;;5.47;;
67595;SDS011;54410;48.694;8.934;2024-01-15T13:29:33;8.37;;;5.93;;
67595;SDS011;54410;48.694;8.934;2024-01-15T13:31:59;7.90;;;6.20;;
67595;SDS011;54410;48.694;8.934;2024-01-15T13:34:25;7.67;;;5.57;;
67595;SDS011;54410;48.694;8.934;2024-01-15T13:36:51;6.03;;;5.07;;
67595;SDS011;54410;48.694;8.934;2024-01-15T13:39:18;6.43;;;5.83;;
67595;SDS011;54410;48.694;8.934;2024-01-15T13:41:46;8.03;;;6.07;;
67595;SDS011;54410;48.694;8.934;2024-01-15T13:44:12;7.53;;;6.13;;
67595;SDS011;54410;48.694;8.934;2024-01-15T13:46:37;19.67;;;11.10;;
67595;SDS011;54410;48.694;8.934;2024-01-15T13:49:03;11.43;;;8.27;;
67595;SDS011;54410;48.694;8.934;2024-01-15T13:51:31;7.27;;;5.97;;
67595;SDS011;54410;48.694;8.934;2024-01-15T13:53:56;7.37;;;6.40;;
67595;SDS011;54410;48.694;8.934;2024-01-15T13:56:22;7.40;;;6.40;;
67595;SDS011;54410;48.694;8.934;2024-01-15T13:58:48;15.60;;;11.10;;
67595;SDS011;54410;48.694;8.934;2024-01-15T14:01:15;8.63;;;6.57;;
67595;SDS011;54410;48.694;8.934;2024-01-15T14:03:42;7.10;;;6.50;;
67595;SDS011;54410;48.694;8.934;2024-01-15T14:06:08;6.17;;;5.30;;
67595;SDS011;54410;48.694;8.934;2024-01-15T14:08:35;6.43;;;5.83;;
67595;SDS011;54410;48.694;8.934;2024-01-15T14:11:02;8.53;;;6.70;;
67595;SDS011;54410;48.694;8.934;2024-01-15T14:13:28;6.53;;;5.23;;
67595;SDS011;54410;48.694;8.934;2024-01-15T14:15:54;7.10;;;5.63;;
67595;SDS011;54410;48.694;8.934;2024-01-15T14:18:20;6.97;;;5.43;;
67595;SDS011;54410;48.694;8.934;2024-01-15T14:20:46;6.40;;;5.43;;
67595;SDS011;54410;48.694;8.934;2024-01-15T14:23:12;6.70;;;6.03;;
67595;SDS011;54410;48.694;8.934;2024-01-15T14:25:38;6.67;;;4.90;;
67595;SDS011;54410;48.694;8.934;2024-01-15T14:28:04;7.00;;;5.60;;
67595;SDS011;54410;48.694;8.934;2024-01-15T14:30:31;5.90;;;5.30;;
67595;SDS011;54410;48.694;8.934;2024-01-15T14:32:57;5.80;;;5.23;;